默认 日期 大小 文件数 浏览量 最新下载 xml
boston磁力链接相关资源由用户搜索指令自动获取,结果来源于网络,本站不存储任何资料,亦不承担任何责任,请于24小时内删除,搜索到5023个磁力,显示前4000条数据,用时5ms。
    ... BBC.txt": 1920, "The Faces - Boston to The BBC 1970-1973 ... , "Faces 1970-03-27 Boston Tea Party Boston MA 1st Gen Soundboard ...
创建时间: 2020-04-27 02:44:00 大小:995.39 MB 文件数量:47 热度:5 最近下载:2025-09-15 20:16:10
    {"Cover.jpg": 33189, "01 Say.mp3": 8638104, "folder.jpg": 157308, "02 Lost.mp3": 10097616, "03 Not Me.mp3": 9997392, "04 Breath.mp3": 7409316, "05 Resistance.mp3": 5281644}
创建时间: 2020-04-27 12:39:24 大小:39.69 MB 文件数量:7 热度:5 最近下载:2024-01-01 08:49:03
    ... , "Rolling Stones_1972-07-18+19 Boston DAC-026 Jailhouse Rock.md5 ...
创建时间: 2020-04-27 15:51:19 大小:489.31 MB 文件数量:45 热度:5 最近下载:2025-01-03 16:51:11
    {"md5sum.md5": 1620, "16 talk.flac": 6902102, "23 break.flac": 12362364, "25 Carol.flac": 32815203, "10 intros.flac": 17945607, "21 Refugee.flac": 31644114, "19 Yer So Bad.flac": 19323200, "01 The Last DJ.flac": 24701703, "04 Free Fallin.flac": 29091781, " ...
创建时间: 2020-04-28 22:02:49 大小:731.56 MB 文件数量:30 热度:4 最近下载:2025-02-12 23:58:02
    {"2016 - Be Nothing": {"Cover.jpg": 38610, "04 - Cu.mp3": 7850670, "03 - Laika.mp3": 7930088, "10 - Fossa.mp3": 9860015, "02 - Lead Feet.mp3": 8769149, "01 - Burn You Up.mp3": 7822476, "05 - Broken Glass.mp3": 9587310, "07 - Forget Me Not.mp3": 7710676, " ...
创建时间: 2020-04-29 07:44:10 大小:391.73 MB 文件数量:61 热度:3 最近下载:2025-01-28 04:50:03
    {"VIDEO_TS": {"VIDEO_TS.BUP": 16384, "VIDEO_TS.IFO": 16384, "VIDEO_TS.VOB": 210944, "VTS_01_0.BUP": 65536, "VTS_01_0.IFO": 65536, "VTS_01_0.VOB": 40595456, "VTS_01_1.VOB": 1073739776, "VTS_01_2.VOB": 1073739776, "VTS_01_3.VOB": 1073739776, "VTS_01_4.VOB": ...
创建时间: 2020-04-30 22:26:55 大小:3.95 GB 文件数量:16 热度:10 最近下载:2025-09-19 05:36:05
    ... ": 30832982, "LucindaWilliams.1999-11-16.boston.ffp": 1321, "LucindaWilliams.1999-11 ...
创建时间: 2020-05-01 03:22:56 大小:428.05 MB 文件数量:29 热度:11 最近下载:2025-03-25 15:48:04
    ... ": 19360538}, "Decadence - This Is Boston Not L.A. - 22 - ... 12191827, "The Proletariat - This Is Boston Not L.A. - 7 - Options ... 7892785, "The Proletariat - This Is Boston Not L.A. - 9 - Allegiance ... 3041026, "The Proletariat - This Is Boston Not L.A. - 8 - ...
创建时间: 2020-05-01 19:25:52 大小:356.44 MB 文件数量:38 热度:3 最近下载:2025-02-08 22:58:07
    {"2020 - GLUE": {"TS4A.tmp": 3078579, "Cover.jpg": 66702, "06. Only1.mp3": 9305927, "12. Liquid.mp3": 9231785, "10. Ratking.mp3": 8284020, "13. Monolith.mp3": 12997557, "02. 1's & 0's.mp3": 8273575, "08. Playing God.mp3": 9864959, "04. Terrible Love.mp3": ...
创建时间: 2020-05-02 02:12:48 大小:420.34 MB 文件数量:62 热度:3 最近下载:2024-01-01 21:52:04
    {"Track101-fixed.flac": 26931720, "Track102-fixed.flac": 22447358, "Track103-fixed.flac": 22810922, "Track104-fixed.flac": 41612138, "Track105-fixed.flac": 34072039, "Track106-fixed.flac": 30691670, "Track107-fixed.flac": 26242836, "Track108-fixed.flac": ...
创建时间: 2020-05-02 07:40:39 大小:749.28 MB 文件数量:33 热度:7 最近下载:2025-02-25 11:50:01
    ... 1154, "Boston - Boston.cue": 1013, "Boston - Boston.log": 2654, "Boston - Boston.flac": 271874304, "Boston - Boston.accurip": 2191 ... 2415, "Boston - Boston.cue": 1009, "Boston - Boston.log": 3202, "Boston - Boston.flac": 278937988, "Boston - Boston.accurip": ...
创建时间: 2020-05-02 21:59:15 大小:7.6 GB 文件数量:304 热度:4 最近下载:2025-01-03 14:41:05
    {"Filmfix": {"Read me.doc": 749, "FiLMFiX.jpeg.jpg": 107677}, "09 -Party.mp3": 5957632, "11-Amanda.mp3": 4085430, "13 -Smokin'.mp3": 6281216, "01 - Tell Me.mp3": 5871616, "02 -Higher Power.mp3": 7348224, "07-Livin' For You.mp3": 4744286, "04 - Peace Of ...
创建时间: 2020-05-02 23:38:45 大小:98.4 MB 文件数量:20 热度:3 最近下载:2024-01-02 01:22:04
    {"files.nfo": 996, "Boston - Boston (1976)": {"05. Smokin' - Boston.flac": 30991334, "06. ... Love - Boston.flac": 30437402}, "Boston - Greatest Hits (1997)": {"09 Boston - Party. ... I'll Never Be - Boston.flac": 44743864}, "Boston - Corporate America (2002)": ...
创建时间: 2020-05-04 21:47:22 大小:4.62 GB 文件数量:174 热度:5 最近下载:2025-01-01 08:34:02
    ... -10-23 House Of Blues Boston, MA.txt": 635}
创建时间: 2020-05-05 10:41:19 大小:919.48 MB 文件数量:26 热度:6 最近下载:2024-12-08 06:22:02
    {"2020 - GLUE": {"cover.jpg": 788447, "results.log": 3259, "06 Only1.flac": 32349722, "12 Liquid.flac": 29723418, "10 Ratking.flac": 28142292, "13 Monolith.flac": 39584202, "02 1's & 0's.flac": 27953054, "08 Playing God.flac": 32559857, "04 Terrible Love. ...
创建时间: 2020-05-09 10:24:02 大小:1016.07 MB 文件数量:56 热度:4 最近下载:2025-01-12 18:01:44
    ... -09-05 Paradise Rock Club, Boston, MA FM info.txt": 1544 ...
创建时间: 2020-05-09 15:27:46 大小:431.96 MB 文件数量:20 热度:4 最近下载:2024-10-18 05:28:01
    {"The Boston Common Collective Works (Disc 1)": {" ...
创建时间: 2020-05-09 16:47:16 大小:93.64 MB 文件数量:23 热度:3 最近下载:2025-02-23 23:59:03
    {"NBA Playoffs 2012 Game 7 Miami Heat - Boston Celtics (09-06-2012).mkv": 2803388902}
创建时间: 2020-05-09 20:59:57 大小:2.61 GB 文件数量:1 热度:9 最近下载:2025-08-06 22:59:03
    ... "The Doors - Live In Boston 1970 (Disc-3- Second Show ... ": 2539756, "CD - Live In Boston - 02 - 03.jpg": 6590671, ... "CD - Live In Boston - 04 - 05.jpg": 7685999 ... 7330933, "CD - Live In Boston - gatefold.jpg": 1579267, "Torrent_downloaded_from_Demonoid ...
创建时间: 2020-05-10 02:37:38 大小:1.31 GB 文件数量:62 热度:4 最近下载:2022-04-08 06:19:30
    ... ": 630, "info.txt": 1150, "B52s Boston 1982 april 24 aud1 flac16 ...
创建时间: 2020-05-10 03:44:49 大小:422.19 MB 文件数量:18 热度:4 最近下载:2025-05-28 07:26:01